• Join FlightAware (Why Join?)
  • Login
  • US Flag 
03:29AM EDT


 

Airport Tracker/Info


-or-


 

Live Flight TrackerFlight Track Log ✈ BJS542 ✈ 28-Jun-2013 ✈ KAPC - KSFO

Flight Track Log - Related Links

Times and Time Zones

All times are in EDT time to prevent confusion due to time zone crossing. See the BJS542 flight status page for this flight to view local times or setup timezone preferences in your user account.

Time Position Orientation Groundspeed Altitude Reporting Facility
EDT Latitude Longitude Course Direction KTS MPH feet Rate Location/Type
08:29PM 38.1906 -122.3028 254° West 168 193 1,800  Level Oakland Center
08:30PM 38.1772 -122.3800 258° West 232 267 4,000 1,500 Climbing Oakland Center
08:31PM 38.1600 -122.4714 257° West 259 298 4,900 480 Climbing Oakland Center
08:32PM 38.1428 -122.5661 257° West 274 315 5,100 1,800 Climbing Oakland Center
08:33PM 38.0948 -122.7405 254° West  Level FlightAware Approximate
08:33PM 38.0867 -122.6228 218° Southwest 285 328 8,700  Level Oakland Center
08:34PM 38.0770 -122.8203 254° West  Level FlightAware Approximate
08:34PM 38.0069 -122.6461 193° South 296 341 10,800  Level Oakland Center
08:35PM 37.9006 -122.6642 188° South 341 392 11,000 120 Climbing Oakland Center
08:36PM 37.8167 -122.5833 143° Southeast 330 380 11,100  Climbing Northern Cal TRACON
08:37PM 37.7500 -122.5167 142° Southeast 287 330 11,000  Descending Northern Cal TRACON
08:38PM 37.7167 -122.4333 117° Southeast 233 268 11,100 -660 Climbing Northern Cal TRACON
08:39PM 37.7000 -122.3667 108° East 217 250 9,700 -1,500 Descending Northern Cal TRACON
08:41PM 37.6500 -122.2333 115° Southeast 220 253 6,700 -1,260 Descending Northern Cal TRACON
08:42PM 37.6167 -122.1667 122° Southeast 202 232 6,000 -1,020 Descending Northern Cal TRACON
08:43PM 37.5667 -122.1333 152° Southeast 211 243 4,600 -1,140 Descending Northern Cal TRACON
08:44PM 37.5333 -122.1833 230° Southwest 187 215 3,700 -1,080 Descending Northern Cal TRACON
08:45PM 37.5500 -122.2167 302° West 171 197 2,600 -1,080 Descending Northern Cal TRACON
08:46PM 37.5833 -122.2667 310° West 167 192 1,700 -960 Descending Northern Cal TRACON
08:47PM 37.6000 -122.3167 293° West 130 150 800 -900 Descending Northern Cal TRACON